createdAt,value
2018-01-13T00:00:42.157Z,1017.56
2018-01-13T00:01:42.145Z,1017.56
2018-01-13T00:02:42.096Z,1017.54
2018-01-13T00:03:42.039Z,1017.55
2018-01-13T00:04:42.002Z,1017.57
2018-01-13T00:05:41.963Z,1017.52
2018-01-13T00:06:41.920Z,1017.55
2018-01-13T00:07:41.883Z,1017.51
2018-01-13T00:08:41.846Z,1017.47
2018-01-13T00:09:41.806Z,1017.55
2018-01-13T00:10:41.766Z,1017.53
2018-01-13T00:11:41.735Z,1017.49
2018-01-13T00:12:41.688Z,1017.50
2018-01-13T00:13:41.649Z,1017.50
2018-01-13T00:14:41.608Z,1017.50
2018-01-13T00:15:41.574Z,1017.38
2018-01-13T00:16:41.529Z,1017.43
2018-01-13T00:17:41.489Z,1017.41
2018-01-13T00:18:41.464Z,1017.49
2018-01-13T00:19:41.418Z,1017.44
2018-01-13T00:20:41.371Z,1017.41
2018-01-13T00:21:41.332Z,1017.39
2018-01-13T00:22:41.292Z,1017.41
2018-01-13T00:23:41.280Z,1017.38
2018-01-13T00:24:41.215Z,1017.36
2018-01-13T00:25:41.173Z,1017.41
2018-01-13T00:26:41.135Z,1017.41
2018-01-13T00:27:41.094Z,1017.40
2018-01-13T00:28:41.056Z,1017.37
2018-01-13T00:29:41.022Z,1017.43
2018-01-13T00:30:40.975Z,1017.44
2018-01-13T00:31:40.939Z,1017.40
2018-01-13T00:32:40.901Z,1017.44
2018-01-13T00:33:40.858Z,1017.42
2018-01-13T00:34:40.824Z,1017.46
2018-01-13T00:35:40.793Z,1017.36
2018-01-13T00:36:40.741Z,1017.44
2018-01-13T00:37:40.702Z,1017.40
2018-01-13T00:38:40.673Z,1017.39
2018-01-13T00:39:40.628Z,1017.25
2018-01-13T00:40:40.583Z,1017.39
2018-01-13T00:41:40.544Z,1017.37
2018-01-13T00:42:40.505Z,1017.37
2018-01-13T00:43:40.462Z,1017.30
2018-01-13T00:44:40.422Z,1017.34
2018-01-13T00:45:40.384Z,1017.41
2018-01-13T00:46:40.343Z,1017.38
2018-01-13T00:47:40.304Z,1017.35
2018-01-13T00:48:40.270Z,1017.38
2018-01-13T00:49:40.234Z,1017.40
2018-01-13T00:50:40.185Z,1017.36
2018-01-13T00:51:40.165Z,1017.39
2018-01-13T00:52:40.107Z,1017.24
2018-01-13T00:53:40.071Z,1017.33
2018-01-13T00:54:40.026Z,1017.38
2018-01-13T00:55:39.988Z,1017.35
2018-01-13T00:56:39.948Z,1017.37
2018-01-13T00:57:39.906Z,1017.33
2018-01-13T00:58:39.864Z,1017.32
2018-01-13T00:59:39.827Z,1017.30
2018-01-13T01:00:39.788Z,1017.29
2018-01-13T01:01:39.750Z,1017.33
2018-01-13T01:02:39.741Z,1017.30
2018-01-13T01:03:39.666Z,1017.31
2018-01-13T01:04:39.627Z,1017.32
2018-01-13T01:05:39.603Z,1017.32
2018-01-13T01:06:39.597Z,1017.33
2018-01-13T01:07:39.510Z,1017.33
2018-01-13T01:08:39.467Z,1017.33
2018-01-13T01:09:39.429Z,1017.31
2018-01-13T01:10:39.390Z,1017.30
2018-01-13T01:11:39.348Z,1017.30
2018-01-13T01:12:39.309Z,1017.28
2018-01-13T01:13:39.268Z,1017.31
2018-01-13T01:14:39.232Z,1017.30
2018-01-13T01:15:39.191Z,1017.28
2018-01-13T01:16:39.148Z,1017.29
2018-01-13T01:17:39.109Z,1017.30
2018-01-13T01:18:39.070Z,1017.28
2018-01-13T01:19:39.037Z,1017.30
2018-01-13T01:20:38.989Z,1017.29
2018-01-13T01:21:38.956Z,1017.28
2018-01-13T01:22:38.912Z,1017.32
2018-01-13T01:23:38.870Z,1017.28
2018-01-13T01:24:38.830Z,1017.34
2018-01-13T01:25:38.791Z,1017.32
2018-01-13T01:26:38.750Z,1017.31
2018-01-13T01:27:38.711Z,1017.32
2018-01-13T01:28:38.672Z,1017.29
2018-01-13T01:29:38.631Z,1017.27
2018-01-13T01:30:38.589Z,1017.33
2018-01-13T01:31:38.551Z,1017.32
2018-01-13T01:32:38.510Z,1017.34
2018-01-13T01:33:38.472Z,1017.25
2018-01-13T01:34:38.430Z,1017.28
2018-01-13T01:35:38.394Z,1017.31
2018-01-13T01:36:38.353Z,1017.32
2018-01-13T01:37:38.343Z,1017.32
2018-01-13T01:38:38.275Z,1017.27
2018-01-13T01:39:38.234Z,1017.32
2018-01-13T01:40:38.194Z,1017.26
2018-01-13T01:41:38.153Z,1017.27
2018-01-13T01:42:38.111Z,1017.26
2018-01-13T01:43:38.080Z,1017.23
2018-01-13T01:44:38.035Z,1017.24
2018-01-13T01:45:37.996Z,1017.24
2018-01-13T01:46:37.953Z,1017.23
2018-01-13T01:47:37.916Z,1017.19
2018-01-13T01:48:37.873Z,1017.14
2018-01-13T01:49:37.834Z,1017.12
2018-01-13T01:50:37.796Z,1017.21
2018-01-13T01:51:37.754Z,1017.21
2018-01-13T01:52:37.714Z,1017.20
2018-01-13T01:53:37.674Z,1017.22
2018-01-13T01:54:37.634Z,1017.22
2018-01-13T01:55:37.594Z,1017.18
2018-01-13T01:56:37.556Z,1017.20
2018-01-13T01:57:37.515Z,1017.22
2018-01-13T01:58:37.475Z,1017.11
2018-01-13T01:59:37.438Z,1017.20
2018-01-13T02:00:37.400Z,1017.17
2018-01-13T02:01:37.386Z,1017.16
2018-01-13T02:02:37.326Z,1017.09
2018-01-13T02:03:37.308Z,1017.13
2018-01-13T02:04:37.235Z,1017.13
2018-01-13T02:05:37.196Z,1017.15
2018-01-13T02:06:37.154Z,1017.10
2018-01-13T02:07:37.115Z,1017.09
2018-01-13T02:08:37.077Z,1017.11
2018-01-13T02:09:37.034Z,1017.10
2018-01-13T02:10:36.996Z,1017.08
2018-01-13T02:11:36.954Z,1017.09
2018-01-13T02:12:36.916Z,1017.10
2018-01-13T02:13:36.876Z,1017.03
2018-01-13T02:14:36.837Z,1017.08
2018-01-13T02:15:36.796Z,1017.10
2018-01-13T02:16:36.760Z,1017.05
2018-01-13T02:17:36.717Z,1017.07
2018-01-13T02:18:36.675Z,1017.05
2018-01-13T02:19:36.637Z,1016.99
2018-01-13T02:20:36.598Z,1017.02
2018-01-13T02:21:36.559Z,1017.01
2018-01-13T02:22:36.517Z,1017.00
2018-01-13T02:23:36.479Z,1016.97
2018-01-13T02:24:36.437Z,1016.87
2018-01-13T02:25:36.399Z,1016.97
2018-01-13T02:26:36.356Z,1016.93
2018-01-13T02:27:36.340Z,1016.95
2018-01-13T02:28:36.282Z,1016.95
2018-01-13T02:29:36.272Z,1016.93
2018-01-13T02:30:36.210Z,1016.81
2018-01-13T02:31:36.182Z,1016.85
2018-01-13T02:32:36.121Z,1016.87
2018-01-13T02:33:36.082Z,1016.86
2018-01-13T02:34:36.042Z,1016.82
2018-01-13T02:35:36.003Z,1016.86
2018-01-13T02:36:35.965Z,1016.88
2018-01-13T02:37:35.920Z,1016.87
2018-01-13T02:38:35.883Z,1016.84
2018-01-13T02:39:35.844Z,1016.87
2018-01-13T02:40:35.804Z,1016.85
2018-01-13T02:41:35.764Z,1016.88
2018-01-13T02:42:35.728Z,1016.85
2018-01-13T02:43:35.686Z,1016.81
2018-01-13T02:44:35.647Z,1016.86
2018-01-13T02:45:35.606Z,1016.82
2018-01-13T02:46:35.566Z,1016.77
2018-01-13T02:47:35.525Z,1016.77
2018-01-13T02:48:35.485Z,1016.76
2018-01-13T02:49:35.447Z,1016.80
2018-01-13T02:50:35.407Z,1016.75
2018-01-13T02:51:35.368Z,1016.76
2018-01-13T02:52:35.328Z,1016.80
2018-01-13T02:53:35.314Z,1016.77
2018-01-13T02:54:35.248Z,1016.73
2018-01-13T02:55:35.210Z,1016.79
2018-01-13T02:56:35.171Z,1016.77
2018-01-13T02:57:35.128Z,1016.65
2018-01-13T02:58:35.088Z,1016.69
2018-01-13T02:59:35.052Z,1016.76
2018-01-13T03:00:35.018Z,1016.75
2018-01-13T03:01:34.972Z,1016.73
2018-01-13T03:02:34.935Z,1016.73
2018-01-13T03:03:34.891Z,1016.74
2018-01-13T03:04:34.851Z,1016.66
2018-01-13T03:05:34.809Z,1016.69
2018-01-13T03:06:34.771Z,1016.74
2018-01-13T03:07:34.734Z,1016.73
2018-01-13T03:08:34.695Z,1016.66
2018-01-13T03:09:34.652Z,1016.70
2018-01-13T03:10:34.614Z,1016.63
2018-01-13T03:11:34.571Z,1016.60
2018-01-13T03:12:34.534Z,1016.67
2018-01-13T03:13:34.493Z,1016.64
2018-01-13T03:14:34.455Z,1016.66
2018-01-13T03:15:34.416Z,1016.68
2018-01-13T03:16:34.384Z,1016.65
2018-01-13T03:17:34.334Z,1016.65
2018-01-13T03:18:34.323Z,1016.66
2018-01-13T03:19:34.256Z,1016.60
2018-01-13T03:20:34.218Z,1016.66
2018-01-13T03:21:34.175Z,1016.60
2018-01-13T03:22:34.137Z,1016.62
2018-01-13T03:23:34.100Z,1016.59
2018-01-13T03:24:34.058Z,1016.59
2018-01-13T03:25:34.027Z,1016.64
2018-01-13T03:26:33.981Z,1016.60
2018-01-13T03:27:33.941Z,1016.63
2018-01-13T03:28:33.927Z,1016.58
2018-01-13T03:29:33.859Z,1016.53
2018-01-13T03:30:33.822Z,1016.52
2018-01-13T03:31:33.786Z,1016.63
2018-01-13T03:32:33.746Z,1016.52
2018-01-13T03:33:33.699Z,1016.44
2018-01-13T03:34:33.662Z,1016.47
2018-01-13T03:35:33.620Z,1016.48
2018-01-13T03:36:33.605Z,1016.52
2018-01-13T03:37:33.549Z,1016.55
2018-01-13T03:38:33.501Z,1016.55
2018-01-13T03:39:33.465Z,1016.56
2018-01-13T03:40:33.423Z,1016.56
2018-01-13T03:41:33.381Z,1016.52
2018-01-13T03:42:33.343Z,1016.53
2018-01-13T03:43:33.306Z,1016.59
2018-01-13T03:44:33.275Z,1016.48
2018-01-13T03:45:33.225Z,1016.53
2018-01-13T03:46:33.183Z,1016.53
2018-01-13T03:47:33.145Z,1016.54
2018-01-13T03:48:33.106Z,1016.52
2018-01-13T03:49:33.065Z,1016.51
2018-01-13T03:50:33.024Z,1016.50
2018-01-13T03:51:33.002Z,1016.48
2018-01-13T03:52:32.946Z,1016.43
2018-01-13T03:53:32.906Z,1016.48
2018-01-13T03:54:32.865Z,1016.49
2018-01-13T03:55:32.854Z,1016.49
2018-01-13T03:56:32.812Z,1016.50
2018-01-13T03:57:32.746Z,1016.42
2018-01-13T03:58:32.708Z,1016.52
2018-01-13T03:59:32.666Z,1016.49
2018-01-13T04:00:32.654Z,1016.42
2018-01-13T04:01:32.588Z,1016.49
2018-01-13T04:02:32.558Z,1016.42
2018-01-13T04:03:32.510Z,1016.41
2018-01-13T04:04:32.467Z,1016.46
2018-01-13T04:05:32.429Z,1016.49
2018-01-13T04:06:32.388Z,1016.44
2018-01-13T04:07:32.353Z,1016.48
2018-01-13T04:08:32.317Z,1016.43
2018-01-13T04:09:32.270Z,1016.43
2018-01-13T04:10:32.231Z,1016.41
2018-01-13T04:11:32.191Z,1016.44
2018-01-13T04:12:32.153Z,1016.33
2018-01-13T04:13:32.114Z,1016.37
2018-01-13T04:14:32.073Z,1016.40
2018-01-13T04:15:32.034Z,1016.36
2018-01-13T04:16:31.994Z,1016.42
2018-01-13T04:17:31.952Z,1016.41
2018-01-13T04:18:31.916Z,1016.38
2018-01-13T04:19:31.879Z,1016.39
2018-01-13T04:20:31.836Z,1016.41
2018-01-13T04:21:31.794Z,1016.36
2018-01-13T04:22:31.755Z,1016.40
2018-01-13T04:23:31.748Z,1016.34
2018-01-13T04:24:31.677Z,1016.35
2018-01-13T04:25:31.636Z,1016.34
2018-01-13T04:26:31.597Z,1016.33
2018-01-13T04:27:31.559Z,1016.30
2018-01-13T04:28:31.545Z,1016.30
2018-01-13T04:29:31.494Z,1016.27
2018-01-13T04:30:31.439Z,1016.28
2018-01-13T04:31:31.400Z,1016.31
2018-01-13T04:32:31.361Z,1016.32
2018-01-13T04:33:31.319Z,1016.34
2018-01-13T04:34:31.280Z,1016.30
2018-01-13T04:35:31.241Z,1016.31
2018-01-13T04:36:31.204Z,1016.27
2018-01-13T04:37:31.160Z,1016.34
2018-01-13T04:38:31.122Z,1016.22
2018-01-13T04:39:31.085Z,1016.33
2018-01-13T04:40:31.045Z,1016.31
2018-01-13T04:41:31.003Z,1016.27
2018-01-13T04:42:30.963Z,1016.27
2018-01-13T04:43:31.417Z,1016.26
2018-01-13T04:44:30.884Z,1016.26
2018-01-13T04:45:30.846Z,1016.29
2018-01-13T04:46:31.417Z,1016.22
2018-01-13T04:47:30.767Z,1016.24
2018-01-13T04:48:30.727Z,1016.19
2018-01-13T04:49:30.684Z,1016.21
2018-01-13T04:50:30.646Z,1016.22
2018-01-13T04:51:30.606Z,1016.17
2018-01-13T04:52:30.563Z,1016.15
2018-01-13T04:53:30.526Z,1016.20
2018-01-13T04:54:30.488Z,1016.20
2018-01-13T04:55:30.446Z,1016.20
2018-01-13T04:56:30.405Z,1016.18
2018-01-13T04:57:30.367Z,1016.14
2018-01-13T04:58:30.327Z,1016.20
2018-01-13T04:59:30.287Z,1016.16
2018-01-13T05:00:30.246Z,1016.10
2018-01-13T05:01:30.204Z,1016.21
2018-01-13T05:02:30.163Z,1016.21
2018-01-13T05:03:30.127Z,1016.11
2018-01-13T05:04:30.085Z,1016.12
2018-01-13T05:05:30.046Z,1016.09
2018-01-13T05:06:30.008Z,1016.09
2018-01-13T05:07:29.966Z,1015.96
2018-01-13T05:08:29.924Z,1016.12
2018-01-13T05:09:29.885Z,1016.11
2018-01-13T05:10:29.845Z,1016.10
2018-01-13T05:11:29.828Z,1016.09
2018-01-13T05:12:29.764Z,1016.03
2018-01-13T05:13:29.726Z,1016.14
2018-01-13T05:14:29.683Z,1016.09
2018-01-13T05:15:29.647Z,1016.04
2018-01-13T05:16:29.624Z,1016.11
2018-01-13T05:17:29.565Z,1016.07
2018-01-13T05:18:29.523Z,1016.10
2018-01-13T05:19:29.503Z,1016.12
2018-01-13T05:20:29.444Z,1016.13
2018-01-13T05:21:29.402Z,1016.09
2018-01-13T05:22:29.364Z,1016.07
2018-01-13T05:23:29.324Z,1016.10
2018-01-13T05:24:29.293Z,1016.11
2018-01-13T05:25:29.245Z,1016.08
2018-01-13T05:26:29.203Z,1016.11
2018-01-13T05:27:29.163Z,1016.10
2018-01-13T05:28:29.124Z,1016.10
2018-01-13T05:29:29.086Z,1016.03
2018-01-13T05:30:29.045Z,1016.09
2018-01-13T05:31:29.007Z,1016.12
2018-01-13T05:32:28.980Z,1016.12
2018-01-13T05:33:28.927Z,1016.08
2018-01-13T05:34:28.885Z,1016.13
2018-01-13T05:35:28.843Z,1016.10
2018-01-13T05:36:28.806Z,1016.12
2018-01-13T05:37:28.768Z,1016.08
2018-01-13T05:38:28.727Z,1016.05
2018-01-13T05:39:28.686Z,1016.10
2018-01-13T05:40:28.646Z,1016.08
2018-01-13T05:41:28.606Z,1016.06
2018-01-13T05:42:28.567Z,1016.01
2018-01-13T05:43:28.529Z,1016.07
2018-01-13T05:44:28.487Z,1016.05
2018-01-13T05:45:28.449Z,1016.05
2018-01-13T05:46:28.407Z,1016.00
2018-01-13T05:47:28.368Z,1016.06
2018-01-13T05:48:28.330Z,1016.01
2018-01-13T05:49:28.288Z,1016.06
2018-01-13T05:50:28.250Z,1016.02
2018-01-13T05:51:28.210Z,1016.08
2018-01-13T05:52:28.171Z,1016.01
2018-01-13T05:53:28.152Z,1015.99
2018-01-13T05:54:28.092Z,1016.04
2018-01-13T05:55:28.052Z,1016.02
2018-01-13T05:56:28.014Z,1016.07
2018-01-13T05:57:27.973Z,1016.04
2018-01-13T05:58:27.933Z,1016.01
2018-01-13T05:59:27.892Z,1015.96
2018-01-13T06:00:27.853Z,1016.07
2018-01-13T06:01:27.812Z,1016.04
2018-01-13T06:02:27.773Z,1016.00
2018-01-13T06:03:27.734Z,1016.06
2018-01-13T06:04:27.694Z,1016.03
2018-01-13T06:05:27.653Z,1016.06
2018-01-13T06:06:27.648Z,1016.05
2018-01-13T06:07:27.575Z,1016.06
2018-01-13T06:08:27.537Z,1016.03
2018-01-13T06:09:27.495Z,1015.98
2018-01-13T06:10:27.456Z,1016.00
2018-01-13T06:11:27.416Z,1016.00
2018-01-13T06:12:27.376Z,1016.00
2018-01-13T06:13:27.336Z,1016.03
2018-01-13T06:14:27.302Z,1015.98
2018-01-13T06:15:27.256Z,1016.00
2018-01-13T06:16:27.217Z,1015.96
2018-01-13T06:17:27.177Z,1015.94
2018-01-13T06:18:27.138Z,1015.93
2018-01-13T06:19:27.099Z,1015.93
2018-01-13T06:20:27.060Z,1016.04
2018-01-13T06:21:27.020Z,1016.00
2018-01-13T06:22:26.979Z,1015.95
2018-01-13T06:23:26.940Z,1016.01
2018-01-13T06:24:26.900Z,1016.01
2018-01-13T06:25:26.862Z,1016.03
2018-01-13T06:26:26.821Z,1016.02
2018-01-13T06:27:26.783Z,1015.99
2018-01-13T06:28:26.762Z,1015.97
2018-01-13T06:29:26.705Z,1015.85
2018-01-13T06:30:26.659Z,1015.95
2018-01-13T06:31:26.622Z,1015.99
2018-01-13T06:32:26.582Z,1015.96
2018-01-13T06:33:26.542Z,1015.96
2018-01-13T06:34:26.506Z,1015.93
2018-01-13T06:35:26.465Z,1015.96
2018-01-13T06:36:26.425Z,1015.96
2018-01-13T06:37:26.385Z,1015.95
2018-01-13T06:38:26.348Z,1015.94
2018-01-13T06:39:26.306Z,1015.93
2018-01-13T06:40:26.266Z,1015.95
2018-01-13T06:41:26.228Z,1015.99
2018-01-13T06:42:26.187Z,1016.01
2018-01-13T06:43:26.148Z,1015.90
2018-01-13T06:44:26.109Z,1015.92
2018-01-13T06:45:26.068Z,1015.97
2018-01-13T06:46:26.033Z,1015.97
2018-01-13T06:47:25.991Z,1016.05
2018-01-13T06:48:25.952Z,1016.00
2018-01-13T06:49:25.911Z,1015.96
2018-01-13T06:50:25.872Z,1016.03
2018-01-13T06:51:25.834Z,1016.01
2018-01-13T06:52:25.792Z,1016.05
2018-01-13T06:53:25.754Z,1015.98
2018-01-13T06:54:25.712Z,1015.97
2018-01-13T06:55:25.680Z,1015.99
2018-01-13T06:56:25.652Z,1016.02
2018-01-13T06:57:25.595Z,1016.01
2018-01-13T06:58:25.556Z,1016.00
2018-01-13T06:59:25.515Z,1015.92
2018-01-13T07:00:25.475Z,1015.88
2018-01-13T07:01:25.435Z,1015.94
2018-01-13T07:02:25.399Z,1015.96
2018-01-13T07:03:25.372Z,1015.95
2018-01-13T07:04:25.317Z,1015.98
2018-01-13T07:05:25.293Z,1015.95
2018-01-13T07:06:25.246Z,1015.97
2018-01-13T07:07:25.198Z,1015.91
2018-01-13T07:08:25.159Z,1015.96
2018-01-13T07:09:25.117Z,1015.96
2018-01-13T07:10:25.079Z,1015.94
2018-01-13T07:11:25.038Z,1015.93
2018-01-13T07:12:25.002Z,1015.93
2018-01-13T07:13:24.960Z,1015.90
2018-01-13T07:14:24.923Z,1015.92
2018-01-13T07:15:24.881Z,1015.80
2018-01-13T07:16:24.841Z,1015.87
2018-01-13T07:17:24.803Z,1015.95
2018-01-13T07:18:24.767Z,1015.88
2018-01-13T07:19:24.739Z,1015.86
2018-01-13T07:20:24.684Z,1015.87
2018-01-13T07:21:24.641Z,1015.89
2018-01-13T07:22:24.606Z,1015.91
2018-01-13T07:23:24.567Z,1015.98
2018-01-13T07:24:24.524Z,1015.99
2018-01-13T07:25:24.485Z,1015.86
2018-01-13T07:26:24.448Z,1015.96
2018-01-13T07:27:24.406Z,1015.94
2018-01-13T07:28:24.454Z,1015.95
2018-01-13T07:29:24.325Z,1016.02
2018-01-13T07:30:24.287Z,1015.99
2018-01-13T07:31:24.248Z,1016.01
2018-01-13T07:32:24.211Z,1016.01
2018-01-13T07:33:24.170Z,1016.02
2018-01-13T07:34:24.129Z,1015.96
2018-01-13T07:35:24.090Z,1016.01
2018-01-13T07:36:24.052Z,1015.96
2018-01-13T07:37:24.012Z,1015.97
2018-01-13T07:38:23.973Z,1015.98
2018-01-13T07:39:23.932Z,1015.99
2018-01-13T07:40:23.893Z,1016.07
2018-01-13T07:41:23.854Z,1015.96
2018-01-13T07:42:23.813Z,1015.97
2018-01-13T07:43:23.776Z,1015.99
2018-01-13T07:44:23.736Z,1015.94
2018-01-13T07:45:23.696Z,1015.91
2018-01-13T07:46:23.657Z,1016.00
2018-01-13T07:47:23.617Z,1015.98
2018-01-13T07:48:23.575Z,1015.97
2018-01-13T07:49:23.542Z,1015.99
2018-01-13T07:50:23.500Z,1015.99
2018-01-13T07:51:23.458Z,1016.01
2018-01-13T07:52:23.424Z,1015.92
2018-01-13T07:53:23.378Z,1016.10
2018-01-13T07:54:23.346Z,1016.01
2018-01-13T07:55:23.357Z,1016.03
2018-01-13T07:56:23.265Z,1016.03
2018-01-13T07:57:23.222Z,1016.05
2018-01-13T07:58:23.183Z,1016.02
2018-01-13T07:59:23.163Z,1016.00
2018-01-13T08:00:23.103Z,1016.00
2018-01-13T08:01:23.063Z,1015.98
2018-01-13T08:02:23.023Z,1015.96
2018-01-13T08:03:22.985Z,1016.01
2018-01-13T08:04:22.943Z,1015.94
2018-01-13T08:05:22.904Z,1015.98
2018-01-13T08:06:22.865Z,1016.05
2018-01-13T08:07:22.825Z,1015.97
2018-01-13T08:08:22.787Z,1016.09
2018-01-13T08:09:22.746Z,1015.98
2018-01-13T08:10:22.708Z,1016.04
2018-01-13T08:11:22.667Z,1016.07
2018-01-13T08:12:22.631Z,1016.04
2018-01-13T08:13:22.589Z,1016.08
2018-01-13T08:14:22.551Z,1016.07
2018-01-13T08:15:22.510Z,1016.00
2018-01-13T08:16:22.471Z,1016.02
2018-01-13T08:17:22.430Z,1016.08
2018-01-13T08:18:22.392Z,1016.05
2018-01-13T08:19:22.352Z,1016.10
2018-01-13T08:20:22.312Z,1016.08
2018-01-13T08:21:22.272Z,1016.10
2018-01-13T08:22:22.233Z,1016.12
2018-01-13T08:23:22.195Z,1016.13
2018-01-13T08:24:22.155Z,1016.06
2018-01-13T08:25:22.117Z,1016.14
2018-01-13T08:26:22.078Z,1016.20
2018-01-13T08:27:22.036Z,1016.14
2018-01-13T08:28:21.994Z,1016.20
2018-01-13T08:29:21.954Z,1016.15
2018-01-13T08:30:21.918Z,1016.22
2018-01-13T08:31:21.875Z,1016.22
2018-01-13T08:32:21.839Z,1016.21
2018-01-13T08:33:21.798Z,1016.26
2018-01-13T08:34:21.759Z,1016.24
2018-01-13T08:35:21.722Z,1016.17
2018-01-13T08:36:21.681Z,1016.28
2018-01-13T08:37:21.643Z,1016.27
2018-01-13T08:38:21.601Z,1016.29
2018-01-13T08:39:21.561Z,1016.30
2018-01-13T08:40:21.523Z,1016.26
2018-01-13T08:41:21.481Z,1016.31
2018-01-13T08:42:21.443Z,1016.26
2018-01-13T08:43:21.408Z,1016.21
2018-01-13T08:44:21.365Z,1016.25
2018-01-13T08:45:21.355Z,1016.33
2018-01-13T08:46:21.286Z,1016.34
2018-01-13T08:47:21.247Z,1016.31
2018-01-13T08:48:21.209Z,1016.27
2018-01-13T08:49:21.216Z,1016.38
2018-01-13T08:50:21.127Z,1016.33
2018-01-13T08:51:21.087Z,1016.34
2018-01-13T08:52:21.060Z,1016.37
2018-01-13T08:53:21.009Z,1016.34
2018-01-13T08:54:20.969Z,1016.42
2018-01-13T08:55:20.930Z,1016.35
2018-01-13T08:56:20.890Z,1016.40
2018-01-13T08:57:20.852Z,1016.32
2018-01-13T08:58:20.809Z,1016.33
2018-01-13T08:59:20.771Z,1016.37
2018-01-13T09:00:20.731Z,1016.37
2018-01-13T09:01:20.691Z,1016.45
2018-01-13T09:02:20.650Z,1016.45
2018-01-13T09:03:20.622Z,1016.49
2018-01-13T09:04:20.572Z,1016.45
2018-01-13T09:05:20.534Z,1016.43
2018-01-13T09:06:20.494Z,1016.53
2018-01-13T09:07:20.456Z,1016.49
2018-01-13T09:08:20.424Z,1016.54
2018-01-13T09:09:20.375Z,1016.59
2018-01-13T09:10:20.333Z,1016.56
2018-01-13T09:11:20.296Z,1016.47
2018-01-13T09:12:20.257Z,1016.54
2018-01-13T09:13:20.217Z,1016.49
2018-01-13T09:14:20.177Z,1016.46
2018-01-13T09:15:20.139Z,1016.48
2018-01-13T09:16:20.099Z,1016.50
2018-01-13T09:17:20.060Z,1016.46
2018-01-13T09:18:20.038Z,1016.48
2018-01-13T09:19:20.001Z,1016.51
2018-01-13T09:20:19.961Z,1016.50
2018-01-13T09:21:19.933Z,1016.65
2018-01-13T09:22:19.861Z,1016.39
2018-01-13T09:23:19.822Z,1016.52
2018-01-13T09:24:19.785Z,1016.71
2018-01-13T09:25:19.741Z,1016.68
2018-01-13T09:26:19.713Z,1016.59
2018-01-13T09:27:19.662Z,1016.65
2018-01-13T09:28:19.625Z,1016.56
2018-01-13T09:29:19.582Z,1016.50
2018-01-13T09:30:19.543Z,1016.65
2018-01-13T09:31:19.504Z,1016.63
2018-01-13T09:32:19.465Z,1016.63
2018-01-13T09:33:19.424Z,1016.70
2018-01-13T09:34:19.385Z,1016.42
2018-01-13T09:35:19.349Z,1016.56
2018-01-13T09:36:19.308Z,1016.57
2018-01-13T09:37:19.267Z,1016.55
2018-01-13T09:38:19.228Z,1016.70
2018-01-13T09:39:19.188Z,1016.37
2018-01-13T09:40:19.148Z,1016.54
2018-01-13T09:41:19.109Z,1016.56
2018-01-13T09:42:19.069Z,1016.50
2018-01-13T09:43:19.030Z,1016.55
2018-01-13T09:44:18.990Z,1016.58
2018-01-13T09:45:18.981Z,1016.52
2018-01-13T09:46:18.910Z,1016.69
2018-01-13T09:47:18.872Z,1016.70
2018-01-13T09:48:18.833Z,1016.69
2018-01-13T09:49:18.795Z,1016.76
2018-01-13T09:50:18.752Z,1016.74
2018-01-13T09:51:18.712Z,1016.59
2018-01-13T09:52:18.690Z,1016.60
2018-01-13T09:53:18.636Z,1016.73
2018-01-13T09:54:18.596Z,1016.57
2018-01-13T09:55:18.560Z,1016.68
2018-01-13T09:56:18.517Z,1016.70
2018-01-13T09:57:18.481Z,1016.64
2018-01-13T09:58:18.437Z,1016.58
2018-01-13T09:59:18.399Z,1016.70
2018-01-13T10:00:18.358Z,1016.75
2018-01-13T10:01:18.322Z,1016.72
2018-01-13T10:02:18.277Z,1016.79
2018-01-13T10:03:18.241Z,1016.74
2018-01-13T10:04:18.198Z,1016.71
2018-01-13T10:05:18.160Z,1016.68
2018-01-13T10:06:18.121Z,1016.80
2018-01-13T10:07:18.098Z,1016.61
2018-01-13T10:08:18.042Z,1016.71
2018-01-13T10:09:18.002Z,1016.63
2018-01-13T10:10:17.959Z,1016.63
2018-01-13T10:11:17.925Z,1016.62
2018-01-13T10:12:17.881Z,1016.65
2018-01-13T10:13:17.844Z,1016.68
2018-01-13T10:14:17.805Z,1016.74
2018-01-13T10:15:17.761Z,1016.71
2018-01-13T10:16:17.724Z,1016.73
2018-01-13T10:17:17.684Z,1016.72
2018-01-13T10:18:17.645Z,1016.78
2018-01-13T10:19:17.604Z,1016.77
2018-01-13T10:20:17.566Z,1016.74
2018-01-13T10:21:17.525Z,1016.72
2018-01-13T10:22:17.488Z,1016.81
2018-01-13T10:23:17.448Z,1016.68
2018-01-13T10:24:17.410Z,1016.74
2018-01-13T10:25:17.367Z,1016.77
2018-01-13T10:26:17.327Z,1016.69
2018-01-13T10:27:17.288Z,1016.77
2018-01-13T10:28:17.252Z,1016.68
2018-01-13T10:29:17.208Z,1016.72
2018-01-13T10:30:17.176Z,1016.69
2018-01-13T10:31:17.150Z,1016.66
2018-01-13T10:32:17.092Z,1016.68
2018-01-13T10:33:17.049Z,1016.72
2018-01-13T10:34:17.041Z,1016.91
2018-01-13T10:35:16.972Z,1016.76
2018-01-13T10:36:16.934Z,1016.70
2018-01-13T10:37:16.894Z,1016.76
2018-01-13T10:38:16.853Z,1016.62
2018-01-13T10:39:16.811Z,1016.70
2018-01-13T10:40:16.821Z,1016.76
2018-01-13T10:41:16.733Z,1016.67
2018-01-13T10:42:16.694Z,1016.65
2018-01-13T10:43:16.653Z,1016.70
2018-01-13T10:44:16.616Z,1016.59
2018-01-13T10:45:16.574Z,1016.65
2018-01-13T10:46:16.534Z,1016.66
2018-01-13T10:47:16.498Z,1016.77
2018-01-13T10:48:16.456Z,1016.55
2018-01-13T10:49:16.415Z,1016.67
2018-01-13T10:50:16.375Z,1016.80
2018-01-13T10:51:16.337Z,1016.79
2018-01-13T10:52:16.298Z,1016.69
2018-01-13T10:53:16.257Z,1016.61
2018-01-13T10:54:16.251Z,1016.61
2018-01-13T10:55:16.178Z,1016.67
2018-01-13T10:56:16.140Z,1016.68
2018-01-13T10:57:16.098Z,1016.57
2018-01-13T10:58:16.057Z,1016.64
2018-01-13T10:59:16.022Z,1016.61
2018-01-13T11:00:15.983Z,1016.59
2018-01-13T11:01:15.968Z,1016.60
2018-01-13T11:02:15.901Z,1016.52
2018-01-13T11:03:15.859Z,1016.57
2018-01-13T11:04:15.822Z,1016.52
2018-01-13T11:05:15.782Z,1016.46
2018-01-13T11:06:15.768Z,1016.47
2018-01-13T11:07:15.704Z,1016.50
2018-01-13T11:08:15.666Z,1016.41
2018-01-13T11:09:15.624Z,1016.35
2018-01-13T11:10:15.584Z,1016.40
2018-01-13T11:11:15.545Z,1016.52
2018-01-13T11:12:15.505Z,1016.33
2018-01-13T11:13:15.466Z,1016.47
2018-01-13T11:14:15.427Z,1016.46
2018-01-13T11:15:15.388Z,1016.56
2018-01-13T11:16:15.349Z,1016.51
2018-01-13T11:17:15.309Z,1016.44
2018-01-13T11:18:15.269Z,1016.40
2018-01-13T11:19:15.231Z,1016.38
2018-01-13T11:20:15.193Z,1016.44
2018-01-13T11:21:15.154Z,1016.41
2018-01-13T11:22:15.116Z,1016.30
2018-01-13T11:23:15.076Z,1016.41
2018-01-13T11:24:15.037Z,1016.32
2018-01-13T11:25:14.997Z,1016.34
2018-01-13T11:26:14.958Z,1016.39
2018-01-13T11:27:14.920Z,1016.46
2018-01-13T11:28:14.880Z,1016.38
2018-01-13T11:29:14.849Z,1016.49
2018-01-13T11:30:14.806Z,1016.25
2018-01-13T11:31:14.767Z,1016.26
2018-01-13T11:32:14.727Z,1016.33
2018-01-13T11:33:14.691Z,1016.18
2018-01-13T11:34:14.651Z,1016.18
2018-01-13T11:35:14.613Z,1016.18
2018-01-13T11:36:14.576Z,1016.17
2018-01-13T11:37:14.535Z,1016.19
2018-01-13T11:38:14.497Z,1016.18
2018-01-13T11:39:14.461Z,1016.10
2018-01-13T11:40:14.425Z,1016.13
2018-01-13T11:41:14.386Z,1016.28
2018-01-13T11:42:14.347Z,1016.37
2018-01-13T11:43:14.309Z,1016.39
2018-01-13T11:44:14.272Z,1016.29
2018-01-13T11:45:14.232Z,1016.15
2018-01-13T11:46:14.199Z,1016.15
2018-01-13T11:47:14.162Z,1016.33
2018-01-13T11:48:14.123Z,1016.13
2018-01-13T11:49:14.088Z,1016.19
2018-01-13T11:50:14.050Z,1016.16
2018-01-13T11:51:14.013Z,1016.03
2018-01-13T11:52:13.977Z,1016.04
2018-01-13T11:53:13.941Z,1016.09
2018-01-13T11:54:13.903Z,1016.12
2018-01-13T11:55:13.866Z,1016.01
2018-01-13T11:56:13.837Z,1016.24
2018-01-13T11:57:13.793Z,1016.34
2018-01-13T11:58:13.761Z,1016.22
2018-01-13T11:59:13.723Z,1016.02
2018-01-13T12:00:13.689Z,1016.15
2018-01-13T12:01:13.652Z,1016.32
2018-01-13T12:02:13.616Z,1016.20
2018-01-13T12:03:13.576Z,1016.06
2018-01-13T12:04:13.547Z,1016.04
2018-01-13T12:05:13.509Z,1016.13